Time;durP1;ratioP1;P1;durP2;ratioP2;P2;SDS_P1;SDS_P2;PMS_P1;PMS_P2;Temp;Humidity;BMP_temperature;BMP_pressure;BME280_temperature;BME280_humidity;BME280_pressure;Samples;Min_cycle;Max_cycle;Signal;HPM_P1;HPM_P2
2021/01/04 00:02:05;;;;;;;41.50;25.60;;;;;;;1.66;83.33;101174.91;1696702;83;21091;-68
2021/01/04 00:04:51;;;;;;;44.30;26.55;;;;;;;1.66;83.36;101171.45;1708596;83;21101;-68
2021/01/04 00:07:51;;;;;;;38.38;24.00;;;;;;;1.69;83.40;101169.60;1876993;75;29471;-69
2021/01/04 00:10:55;;;;;;;41.33;25.45;;;;;;;1.64;83.43;101168.91;1821189;77;21160;-68
2021/01/04 00:13:33;;;;;;;;;;;;;;;1.64;83.48;101168.02;1830687;77;21955;-68
2021/01/04 00:16:15;;;;;;;29.40;19.60;;;;;;;1.64;83.50;101164.11;1810438;77;20397;-68
2021/01/04 00:18:47;;;;;;;36.75;23.40;;;;;;;1.62;83.56;101164.16;1792140;77;21098;-69
2021/01/04 00:21:29;;;;;;;29.37;19.57;;;;;;;1.64;83.57;101164.11;1830155;77;21569;-68
2021/01/04 00:24:22;;;;;;;39.30;24.77;;;;;;;1.64;83.63;101162.81;1779703;80;21058;-66
2021/01/04 00:27:01;;;;;;;32.42;21.60;;;;;;;1.64;83.67;101160.20;1816880;78;21903;-70
2021/01/04 00:29:31;;;;;;;34.73;22.05;;;;;;;1.63;83.72;101148.09;1779589;80;21595;-68
2021/01/04 00:32:03;;;;;;;40.83;24.07;;;;;;;1.63;83.77;101152.00;1759586;80;21568;-69
2021/01/04 00:34:46;;;;;;;41.68;26.20;;;;;;;1.64;83.83;101165.41;1797297;78;21172;-67
2021/01/04 00:37:30;;;;;;;48.38;30.08;;;;;;;1.63;83.87;101153.30;1780239;80;27824;-68
2021/01/04 00:40:20;;;;;;;45.08;29.37;;;;;;;1.63;83.89;101155.45;1758059;81;22937;-68
2021/01/04 00:42:52;;;;;;;33.63;22.87;;;;;;;1.63;83.95;101148.94;1754173;81;21226;-68
2021/01/04 00:45:43;;;;;;;32.63;21.42;;;;;;;1.63;83.98;101151.55;1757562;80;21161;-71
2021/01/04 00:48:38;;;;;;;35.88;22.73;;;;;;;1.65;84.01;101146.31;1731652;82;21398;-68
2021/01/04 00:51:43;;;;;;;28.02;18.73;;;;;;;1.65;84.02;101145.02;1731660;82;21098;-68
2021/01/04 00:54:53;;;;;;;34.58;22.67;;;;;;;1.66;84.04;101151.47;1736863;81;21924;-66
2021/01/04 00:57:39;;;;;;;35.83;23.80;;;;;;;1.66;84.07;101154.53;1747175;81;21153;-68
2021/01/04 01:00:23;;;;;;;32.85;20.12;;;;;;;1.63;84.09;101152.84;1647071;81;21140;-68
2021/01/04 01:03:22;;;;;;;39.13;24.72;;;;;;;1.63;84.14;101146.34;1758157;81;21178;-67
2021/01/04 01:06:04;;;;;;;41.85;25.72;;;;;;;1.62;84.18;101142.03;1721761;81;21124;-67
2021/01/04 01:08:36;;;;;;;34.43;21.42;;;;;;;1.62;84.21;101142.03;1720429;82;21907;-68
2021/01/04 01:11:11;;;;;;;41.65;26.02;;;;;;;1.63;84.24;101141.58;1723226;83;21105;-68
2021/01/04 01:14:03;;;;;;;44.75;26.95;;;;;;;1.62;84.30;101143.34;1738178;81;21168;-66
2021/01/04 01:17:09;;;;;;;42.40;24.75;;;;;;;1.61;84.32;101137.73;1753307;81;21154;-68
2021/01/04 01:19:51;;;;;;;44.13;27.65;;;;;;;1.61;84.36;101137.73;1728356;81;21070;-67
2021/01/04 01:22:36;;;;;;;40.38;22.98;;;;;;;1.60;84.38;101134.72;1742062;81;22064;-67
2021/01/04 01:25:12;;;;;;;42.55;26.95;;;;;;;1.61;84.40;101136.42;1733496;81;21098;-68
2021/01/04 01:28:15;;;;;;;43.45;26.48;;;;;;;1.61;84.43;101136.42;1743850;81;21529;-66
2021/01/04 01:31:07;;;;;;;39.78;23.67;;;;;;;1.61;84.44;101127.31;1734403;81;21129;-68
2021/01/04 01:34:16;;;;;;;40.05;25.77;;;;;;;1.62;84.46;101126.41;1691108;84;21079;-67
2021/01/04 01:37:10;;;;;;;38.48;22.98;;;;;;;1.63;84.45;101122.91;1724493;83;22082;-68
2021/01/04 01:40:17;;;;;;;38.42;24.35;;;;;;;1.62;84.47;101116.45;1724459;82;21126;-69
2021/01/04 01:43:23;;;;;;;44.73;26.20;;;;;;;1.61;84.48;101125.16;1715865;82;21114;-67
2021/01/04 01:46:10;;;;;;;37.10;23.12;;;;;;;1.61;84.50;101110.84;1750437;81;21114;-68
2021/01/04 01:49:08;;;;;;;44.93;27.52;;;;;;;1.63;84.53;101112.48;1684589;84;21158;-66
2021/01/04 01:51:45;;;;;;;40.95;27.17;;;;;;;1.63;84.51;101119.00;1728911;81;21910;-67
2021/01/04 01:54:24;;;;;;;45.28;26.20;;;;;;;1.62;84.52;101118.59;1745850;81;21165;-67
2021/01/04 01:57:09;;;;;;;43.63;26.73;;;;;;;1.62;84.54;101112.09;1746275;81;21182;-67
2021/01/04 02:00:04;;;;;;;32.35;20.57;;;;;;;1.62;84.52;101118.59;1734672;81;21493;-67
2021/01/04 02:02:56;;;;;;;39.58;25.50;;;;;;;1.63;84.54;101121.60;1735936;81;21154;-68
2021/01/04 02:06:08;;;;;;;38.48;24.43;;;;;;;1.64;84.54;101115.94;1716122;81;22177;-70
2021/01/04 02:08:40;;;;;;;41.85;24.70;;;;;;;1.62;84.55;101114.69;1714066;82;21535;-67
2021/01/04 02:11:16;;;;;;;39.65;25.82;;;;;;;1.62;84.56;101124.26;1720997;81;21440;-68
2021/01/04 02:14:04;;;;;;;36.00;23.77;;;;;;;1.65;84.58;101123.73;1887429;76;29045;-69
2021/01/04 02:17:01;;;;;;;40.05;25.60;;;;;;;1.61;84.58;101127.31;1816114;78;21094;-68
2021/01/04 02:20:01;;;;;;;33.15;23.10;;;;;;;1.60;84.60;101125.61;1829342;77;21840;-68
2021/01/04 02:22:45;;;;;;;29.80;19.48;;;;;;;1.61;84.61;101127.31;1849090;77;21038;-68
2021/01/04 02:25:13;;;;;;;24.05;16.50;;;;;;;1.61;84.62;101127.31;1849963;77;21057;-67
2021/01/04 02:27:46;;;;;;;30.10;18.12;;;;;;;1.62;84.63;101120.35;1849729;77;21045;-68
2021/01/04 02:30:16;;;;;;;31.68;20.80;;;;;;;1.62;84.62;101121.66;1849967;77;21097;-68
2021/01/04 02:32:44;;;;;;;36.68;22.58;;;;;;;1.61;84.64;101116.89;1847951;77;22151;-66
2021/01/04 02:35:13;;;;;;;32.17;19.90;;;;;;;1.60;84.65;101123.01;1848199;77;21070;-68
2021/01/04 02:37:42;;;;;;;28.87;19.55;;;;;;;1.61;84.65;101131.22;1816189;79;21070;-69
2021/01/04 02:40:14;;;;;;;28.77;18.90;;;;;;;1.62;84.64;101126.41;1813791;79;21041;-68
2021/01/04 02:42:47;;;;;;;32.55;20.82;;;;;;;1.61;84.64;101131.67;1809300;79;21561;-67
2021/01/04 02:45:23;;;;;;;28.15;19.57;;;;;;;1.62;84.63;101137.27;1781604;80;22963;-68
2021/01/04 02:48:29;;;;;;;27.45;19.23;;;;;;;1.61;84.63;101149.44;1784273;80;21069;-66
2021/01/04 02:51:03;;;;;;;29.12;18.82;;;;;;;1.64;84.60;101152.40;1784279;80;21124;-68
2021/01/04 02:53:49;;;;;;;28.05;18.57;;;;;;;1.64;84.59;101141.56;1815028;77;21078;-68
2021/01/04 02:56:23;;;;;;;30.12;20.23;;;;;;;1.66;84.61;101141.06;1816480;78;21564;-68
2021/01/04 02:59:02;;;;;;;26.95;18.25;;;;;;;1.67;84.56;101141.46;1775195;80;22133;-69
2021/01/04 03:01:39;;;;;;;26.10;17.52;;;;;;;1.68;84.56;101121.02;1743117;82;21046;-66
2021/01/04 03:04:10;;;;;;;24.30;17.60;;;;;;;1.68;84.56;101111.91;1740961;82;21139;-66
2021/01/04 03:07:00;;;;;;;28.60;18.85;;;;;;;1.67;84.52;101110.66;1743246;82;21130;-66
2021/01/04 03:09:29;;;;;;;25.72;16.97;;;;;;;1.65;84.49;101113.31;1731989;82;21155;-67
2021/01/04 03:11:59;;;;;;;23.98;14.93;;;;;;;1.65;84.50;101112.47;1688052;82;22087;-66
2021/01/04 03:14:50;;;;;;;30.45;19.73;;;;;;;1.63;84.50;101111.64;1728316;82;21150;-66
2021/01/04 03:17:41;;;;;;;27.30;17.02;;;;;;;1.63;84.51;101112.48;1760183;80;21066;-66
2021/01/04 03:20:13;;;;;;;29.18;18.92;;;;;;;1.65;84.51;101115.92;1762033;79;21133;-66
2021/01/04 03:22:42;;;;;;;31.12;19.52;;;;;;;1.65;84.49;101132.84;1771676;79;21046;-66
2021/01/04 03:25:29;;;;;;;33.58;20.65;;;;;;;1.66;84.49;101127.19;1738557;81;22162;-66
2021/01/04 03:27:57;;;;;;;28.30;19.07;;;;;;;1.64;84.47;101114.22;1768082;80;21126;-66
2021/01/04 03:30:25;;;;;;;32.98;20.55;;;;;;;1.66;84.49;101116.77;1776369;79;21240;-67
2021/01/04 03:32:53;;;;;;;30.88;20.05;;;;;;;1.66;84.48;101109.81;1822051;77;21058;-66
2021/01/04 03:35:22;;;;;;;48.23;32.55;;;;;;;1.66;84.45;101113.72;1849398;77;21044;-66
2021/01/04 03:37:50;;;;;;;59.08;43.73;;;;;;;1.65;84.44;101122.88;1809904;77;22982;-66
2021/01/04 03:40:19;;;;;;;41.95;30.50;;;;;;;1.65;84.44;101120.28;1773998;80;21098;-66
2021/01/04 03:42:47;;;;;;;41.75;29.87;;;;;;;1.65;84.44;101117.22;1815652;79;21105;-66
2021/01/04 03:45:15;;;;;;;28.83;19.67;;;;;;;1.66;84.42;101116.32;1771822;80;21052;-66
2021/01/04 03:47:43;;;;;;;28.67;19.10;;;;;;;1.66;84.40;101118.92;1742616;82;21499;-68
2021/01/04 03:50:14;;;;;;;32.20;21.00;;;;;;;1.65;84.40;101114.62;1742305;82;22078;-66
2021/01/04 03:52:43;;;;;;;29.05;18.60;;;;;;;1.65;84.42;101130.24;1743007;81;21074;-66
2021/01/04 03:55:14;;;;;;;29.30;20.10;;;;;;;1.64;84.40;101130.27;1740205;82;21060;-66
2021/01/04 03:57:41;;;;;;;26.35;18.10;;;;;;;1.65;84.42;101131.55;1741742;82;21089;-66
2021/01/04 04:00:12;;;;;;;33.35;20.35;;;;;;;1.66;84.40;101132.40;1742236;82;21057;-66
2021/01/04 04:02:42;;;;;;;32.03;20.65;;;;;;;1.65;84.41;101135.45;1746095;81;21892;-66
2021/01/04 04:05:12;;;;;;;31.37;20.40;;;;;;;1.67;84.41;101129.73;1775747;80;21641;-66
2021/01/04 04:07:43;;;;;;;32.17;20.45;;;;;;;1.70;84.39;101133.99;1758635;81;21489;-66
2021/01/04 04:10:14;;;;;;;32.85;21.87;;;;;;;1.72;84.37;101144.76;1767000;81;21474;-66
2021/01/04 04:12:42;;;;;;;32.38;20.97;;;;;;;1.75;84.37;101133.87;1768998;80;21054;-67
2021/01/04 04:15:14;;;;;;;32.78;20.92;;;;;;;1.77;84.34;101129.45;1786726;79;22077;-66
2021/01/04 04:17:41;;;;;;;30.30;20.75;;;;;;;1.77;84.33;101134.22;1762792;80;21509;-67
2021/01/04 04:20:13;;;;;;;29.12;18.82;;;;;;;1.79;84.31;101132.86;1775541;80;21053;-67
2021/01/04 04:22:41;;;;;;;30.62;20.82;;;;;;;1.79;84.28;101129.80;1775385;80;21106;-67
2021/01/04 04:25:12;;;;;;;33.42;20.48;;;;;;;1.79;84.25;101127.20;1777905;80;21062;-67
2021/01/04 04:27:40;;;;;;;32.13;20.77;;;;;;;1.79;84.21;101116.78;1740971;81;22084;-67
2021/01/04 04:30:10;;;;;;;32.85;21.70;;;;;;;1.80;84.21;101117.63;1777788;80;21121;-67
2021/01/04 04:32:38;;;;;;;36.23;22.25;;;;;;;1.79;84.17;101117.23;1750306;80;21137;-67
2021/01/04 04:35:09;;;;;;;31.35;21.40;;;;;;;1.78;84.16;101118.14;1773390;80;21123;-67
2021/01/04 04:37:41;;;;;;;35.80;21.15;;;;;;;1.78;84.15;101121.59;1752282;80;21099;-67
2021/01/04 04:40:17;;;;;;;35.50;21.82;;;;;;;1.79;84.14;101108.12;1794822;78;22061;-67
2021/01/04 04:42:46;;;;;;;33.65;21.25;;;;;;;1.79;84.11;101107.67;1790576;79;21149;-67
2021/01/04 04:45:18;;;;;;;32.98;21.15;;;;;;;1.76;84.08;101097.36;1729736;83;21581;-67
2021/01/04 04:48:06;;;;;;;32.35;20.77;;;;;;;1.76;84.07;101099.11;1781301;79;21132;-67
2021/01/04 04:50:55;;;;;;;31.93;20.80;;;;;;;1.73;84.04;101105.24;1799632;79;21148;-66
2021/01/04 04:53:57;;;;;;;28.02;18.75;;;;;;;1.72;84.04;101099.19;1779886;79;21960;-66
2021/01/04 04:56:37;;;;;;;33.30;20.30;;;;;;;1.73;84.03;101097.42;1695162;82;22649;-66
2021/01/04 04:59:35;;;;;;;35.38;21.77;;;;;;;1.71;84.00;101090.97;1778173;79;21446;-68
2021/01/04 05:02:16;;;;;;;30.50;18.87;;;;;;;1.69;83.96;101092.78;1770658;79;21053;-68
2021/01/04 05:05:14;;;;;;;26.85;18.23;;;;;;;1.68;83.96;101091.08;1782561;78;21153;-67
2021/01/04 05:07:50;;;;;;;30.48;19.62;;;;;;;1.66;83.91;101093.34;1773255;79;21958;-66
2021/01/04 05:10:23;;;;;;;29.18;18.80;;;;;;;1.64;83.91;101094.69;1777711;79;21113;-66
2021/01/04 05:13:23;;;;;;;31.12;20.30;;;;;;;1.65;83.88;101092.48;1761109;80;21156;-67
2021/01/04 05:15:59;;;;;;;31.20;20.52;;;;;;;1.66;83.84;101090.73;1748533;80;21141;-66
2021/01/04 05:19:07;;;;;;;32.75;20.65;;;;;;;1.65;83.80;101091.19;1780185;80;21053;-67
2021/01/04 05:22:14;;;;;;;29.15;18.42;;;;;;;1.65;83.80;101086.43;1777872;79;22800;-67
2021/01/04 05:25:24;;;;;;;24.15;15.28;;;;;;;1.64;83.75;101086.88;1815626;79;22467;-67
2021/01/04 05:28:21;;;;;;;30.37;19.42;;;;;;;1.63;83.72;101089.05;1787940;79;20930;-67
2021/01/04 05:31:20;;;;;;;31.15;20.40;;;;;;;1.62;83.66;101092.56;1780835;79;21069;-63
2021/01/04 05:34:02;;;;;;;35.68;21.80;;;;;;;1.62;83.62;101099.06;1806673;78;21436;-62
2021/01/04 05:36:59;;;;;;;37.42;22.05;;;;;;;1.61;83.60;101093.46;1797082;79;22924;-64
2021/01/04 05:40:05;;;;;;;37.03;23.35;;;;;;;1.61;83.57;101095.22;1741500;80;21141;-63
2021/01/04 05:43:11;;;;;;;33.58;20.95;;;;;;;1.61;83.52;101094.77;1789065;78;21062;-67
2021/01/04 05:46:16;;;;;;;40.38;25.55;;;;;;;1.62;83.52;101095.16;1801897;79;21068;-69
2021/01/04 05:49:28;;;;;;;37.10;24.70;;;;;;;1.64;83.49;101092.50;1758474;81;21164;-68
2021/01/04 05:51:56;;;;;;;38.85;24.75;;;;;;;1.63;83.43;101089.05;1746882;80;21634;-68
2021/01/04 05:54:36;;;;;;;39.30;22.55;;;;;;;1.63;83.39;101083.84;1773390;80;21123;-66
2021/01/04 05:57:09;;;;;;;37.90;23.42;;;;;;;1.62;83.37;101079.99;1797371;79;21513;-66
2021/01/04 05:59:51;;;;;;;41.25;24.87;;;;;;;1.62;83.31;101085.20;1767572;79;21116;-68
2021/01/04 06:02:33;;;;;;;44.40;27.77;;;;;;;1.59;83.26;101081.40;1822855;77;21057;-68
2021/01/04 06:05:16;;;;;;;50.80;27.32;;;;;;;1.56;83.25;101088.86;1772213;80;21900;-73
2021/01/04 06:07:45;;;;;;;50.92;28.87;;;;;;;1.57;83.24;101093.17;1735840;82;21159;-67
2021/01/04 06:10:23;;;;;;;56.28;30.65;;;;;;;1.59;83.26;101103.53;1738203;82;20958;-67
2021/01/04 06:12:53;;;;;;;49.93;28.77;;;;;;;1.61;83.26;101097.82;1737099;82;21074;-68
2021/01/04 06:15:32;;;;;;;46.23;28.00;;;;;;;1.62;83.26;101096.47;1790350;80;21168;-68
2021/01/04 06:18:22;;;;;;;54.65;32.00;;;;;;;1.63;83.21;101099.47;1722340;81;21881;-68
2021/01/04 06:20:55;;;;;;;56.10;32.30;;;;;;;1.63;83.17;101099.47;1716946;82;21102;-68
2021/01/04 06:23:32;;;;;;;54.67;31.35;;;;;;;1.67;83.18;101098.94;1711417;81;21165;-68
2021/01/04 06:26:21;;;;;;;47.65;28.65;;;;;;;1.67;83.14;101089.38;1702782;83;21102;-67
2021/01/04 06:29:04;;;;;;;47.38;28.83;;;;;;;1.68;83.12;101092.38;1739803;81;21078;-68
2021/01/04 06:31:40;;;;;;;53.95;29.95;;;;;;;1.68;83.11;101094.98;1760343;81;21900;-69
2021/01/04 06:34:31;;;;;;;54.30;31.97;;;;;;;1.70;83.07;101099.69;1751830;81;21132;-69
2021/01/04 06:37:02;;;;;;;55.17;33.60;;;;;;;1.68;83.03;101092.38;1732494;81;21323;-68
2021/01/04 06:39:32;;;;;;;53.92;31.77;;;;;;;1.68;83.02;101094.98;1701948;83;21084;-71
2021/01/04 06:42:11;;;;;;;53.95;31.35;;;;;;;1.70;83.00;101094.48;1736014;80;21173;-68
2021/01/04 06:45:01;;;;;;;52.93;32.05;;;;;;;1.76;83.01;101092.14;1873259;76;29014;-68
2021/01/04 06:47:46;;;;;;;50.40;29.40;;;;;;;1.73;82.99;101093.07;1841367;77;21147;-67
2021/01/04 06:50:38;;;;;;;50.05;30.97;;;;;;;1.73;82.95;101085.26;1841461;77;22048;-69
2021/01/04 06:53:23;;;;;;;57.20;32.40;;;;;;;1.72;82.88;101100.94;1808518;79;21075;-67
2021/01/04 06:55:56;;;;;;;55.10;33.45;;;;;;;1.72;82.85;101096.58;1808487;79;21544;-69
2021/01/04 06:59:03;;;;;;;58.13;32.83;;;;;;;1.72;82.85;101097.87;1808480;79;21048;-68
2021/01/04 07:01:37;;;;;;;55.45;33.20;;;;;;;1.73;82.83;101093.52;1808583;79;21586;-69
2021/01/04 07:04:39;;;;;;;59.42;36.35;;;;;;;1.73;82.82;101103.94;1808792;79;22776;-68
2021/01/04 07:07:51;;;;;;;60.98;33.88;;;;;;;1.76;82.81;101109.53;1809146;78;21155;-68
2021/01/04 07:11:00;;;;;;;61.63;35.60;;;;;;;1.76;82.76;101111.68;1809413;78;21088;-67
2021/01/04 07:13:52;;;;;;;53.63;32.83;;;;;;;1.76;82.74;101100.41;1809557;79;21064;-68
2021/01/04 07:16:35;;;;;;;46.85;27.52;;;;;;;1.75;82.75;101104.77;1810470;79;21539;-67
2021/01/04 07:19:37;;;;;;;60.38;36.55;;;;;;;1.76;82.75;101109.53;1809858;79;23097;-68
2021/01/04 07:22:11;;;;;;;56.77;35.40;;;;;;;1.74;82.75;101112.19;1810628;78;21494;-68
2021/01/04 07:24:51;;;;;;;63.55;36.50;;;;;;;1.72;82.73;101116.56;1809845;78;21079;-69
2021/01/04 07:27:41;;;;;;;60.28;35.25;;;;;;;1.73;82.73;101115.66;1842265;78;21127;-68
2021/01/04 07:30:44;;;;;;;67.22;38.02;;;;;;;1.76;82.76;101121.25;1843666;78;21052;-68
2021/01/04 07:33:39;;;;;;;61.68;34.15;;;;;;;1.80;82.75;101122.84;1843562;78;22058;-68
2021/01/04 07:36:30;;;;;;;60.05;34.43;;;;;;;1.83;82.75;101121.44;1829101;78;21491;-68
2021/01/04 07:39:30;;;;;;;63.63;36.85;;;;;;;1.83;82.72;101115.77;1808525;79;21479;-68
2021/01/04 07:42:23;;;;;;;54.30;30.05;;;;;;;1.85;82.68;101118.36;1799750;78;21156;-68
2021/01/04 07:45:22;;;;;;;70.55;37.65;;;;;;;1.85;82.65;101123.11;1793351;80;21104;-67
2021/01/04 07:48:34;;;;;;;62.40;35.08;;;;;;;1.85;82.60;101123.11;1794160;80;21827;-67
2021/01/04 07:51:31;;;;;;;58.90;31.45;;;;;;;1.88;82.59;101126.06;1794072;78;21163;-68
2021/01/04 07:54:19;;;;;;;72.80;39.78;;;;;;;1.88;82.47;101129.97;1793802;80;21602;-69
2021/01/04 07:57:29;;;;;;;69.12;38.60;;;;;;;1.82;82.37;101127.09;1791096;80;21053;-69
2021/01/04 08:00:29;;;;;;;71.82;39.03;;;;;;;1.82;82.40;101122.34;1785984;79;21063;-68
2021/01/04 08:03:09;;;;;;;71.47;39.35;;;;;;;1.85;82.40;101124.87;1706918;80;22016;-68
2021/01/04 08:06:17;;;;;;;67.80;36.53;;;;;;;1.85;82.39;101132.23;1779943;80;21503;-68
2021/01/04 08:08:50;;;;;;;73.20;40.55;;;;;;;1.87;82.37;101140.84;1779808;80;21068;-68
2021/01/04 08:12:04;;;;;;;71.75;40.65;;;;;;;1.90;82.37;101143.80;1779228;80;21072;-67
2021/01/04 08:15:03;;;;;;;65.55;37.60;;;;;;;1.93;82.36;101141.97;1779858;80;21115;-68
2021/01/04 08:17:50;;;;;;;72.32;41.60;;;;;;;1.98;82.35;101138.75;1780922;79;22749;-68
2021/01/04 08:20:19;;;;;;;71.60;40.33;;;;;;;1.98;82.29;101130.93;1765872;80;21171;-69
2021/01/04 08:23:36;;;;;;;72.30;41.68;;;;;;;2.03;82.27;101127.31;1779860;80;21443;-69
2021/01/04 08:26:10;;;;;;;64.97;36.98;;;;;;;2.04;82.22;101129.05;1779743;80;21044;-67
2021/01/04 08:29:09;;;;;;;67.45;39.55;;;;;;;2.04;82.14;101139.47;1779326;80;21084;-68
2021/01/04 08:32:13;;;;;;;75.65;44.13;;;;;;;2.06;82.11;101146.33;1790036;79;22060;-69
2021/01/04 08:34:44;;;;;;;63.50;36.88;;;;;;;2.08;82.06;101139.31;1806795;79;20945;-69
2021/01/04 08:37:19;;;;;;;55.03;33.30;;;;;;;2.14;81.94;101134.36;1811486;79;21538;-72
2021/01/04 08:39:51;;;;;;;48.15;30.88;;;;;;;2.17;81.82;101139.02;1804737;79;21071;-72
2021/01/04 08:42:27;;;;;;;51.98;32.28;;;;;;;2.19;81.66;101135.05;1799616;79;21146;-71
2021/01/04 08:45:05;;;;;;;55.10;33.38;;;;;;;2.21;81.56;101137.14;1785018;78;22066;-70
2021/01/04 08:47:41;;;;;;;62.73;33.53;;;;;;;2.22;81.39;101141.45;1778416;79;21087;-68
2021/01/04 08:50:24;;;;;;;59.20;35.15;;;;;;;2.25;81.35;101151.80;1806320;79;21144;-69
2021/01/04 08:52:57;;;;;;;48.58;30.23;;;;;;;2.27;81.23;101152.14;1801597;78;21050;-69
2021/01/04 08:55:31;;;;;;;45.73;29.40;;;;;;;2.29;81.12;101143.81;1791395;79;21049;-72
2021/01/04 08:58:25;;;;;;;39.95;23.12;;;;;;;2.29;80.90;101139.91;1781079;79;22058;-71
2021/01/04 09:01:22;;;;;;;44.48;28.15;;;;;;;2.30;80.77;101136.39;1802050;79;22460;-70
2021/01/04 09:03:50;;;;;;;40.78;25.57;;;;;;;2.28;80.61;101134.30;1797825;78;22519;-74
2021/01/04 09:06:30;;;;;;;44.80;27.73;;;;;;;2.28;80.51;101132.14;1775838;78;21596;-73
2021/01/04 09:09:20;;;;;;;42.85;27.87;;;;;;;2.30;80.41;101137.70;1799305;79;21044;-71
2021/01/04 09:12:14;;;;;;;39.58;24.90;;;;;;;2.32;80.41;101137.67;1775420;78;22108;-72
2021/01/04 09:14:50;;;;;;;37.30;24.65;;;;;;;2.38;80.38;101141.36;1795193;79;21174;-73
2021/01/04 09:17:46;;;;;;;35.65;23.87;;;;;;;2.43;80.25;101133.41;1805804;78;21178;-72
2021/01/04 09:20:19;;;;;;;54.40;32.65;;;;;;;2.44;80.04;101133.80;1811025;78;21154;-72
2021/01/04 09:23:13;;;;;;;104.83;55.58;;;;;;;2.43;80.00;101128.19;1806231;78;21431;-73
2021/01/04 09:26:08;;;;;;;64.07;44.00;;;;;;;2.52;79.99;101127.42;1831741;77;29176;-73
2021/01/04 09:28:56;;;;;;;47.33;30.55;;;;;;;2.49;79.92;101126.66;1794554;78;21168;-73
2021/01/04 09:31:32;;;;;;;40.90;26.55;;;;;;;2.51;79.88;101127.03;1808668;78;21882;-73
2021/01/04 09:34:10;;;;;;;40.43;26.95;;;;;;;2.58;79.75;101125.89;1798168;78;21492;-74
2021/01/04 09:36:40;;;;;;;48.68;30.20;;;;;;;2.58;79.52;101117.22;1820276;78;21153;-73
2021/01/04 09:39:10;;;;;;;46.88;29.30;;;;;;;2.58;79.52;101101.56;1822403;78;21144;-74
2021/01/04 09:41:37;;;;;;;49.70;31.80;;;;;;;2.64;79.54;101101.37;1787064;80;21604;-75
2021/01/04 09:44:12;;;;;;;46.75;30.15;;;;;;;2.70;79.53;101095.95;1736336;82;21815;-73
2021/01/04 09:46:55;;;;;;;42.13;27.85;;;;;;;2.76;79.42;101094.41;1767356;81;21565;-73
2021/01/04 09:49:36;;;;;;;44.98;28.20;;;;;;;2.81;79.30;101091.64;1768131;81;21439;-72
2021/01/04 09:52:41;;;;;;;41.33;27.93;;;;;;;2.86;79.19;101086.64;1765767;81;21180;-74
2021/01/04 09:55:11;;;;;;;60.85;38.92;;;;;;;2.90;78.98;101090.47;1767468;81;21176;-72
2021/01/04 09:57:44;;;;;;;60.83;39.33;;;;;;;2.87;78.75;101089.65;1759344;81;22138;-73
2021/01/04 10:00:25;;;;;;;88.47;53.05;;;;;;;2.85;78.67;101086.25;1738227;81;21626;-72
2021/01/04 10:03:06;;;;;;;95.60;51.45;;;;;;;2.84;78.64;101084.55;1785981;79;21124;-73
2021/01/04 10:05:39;;;;;;;111.32;59.67;;;;;;;2.86;78.64;101080.58;1770081;81;21474;-72
2021/01/04 10:08:16;;;;;;;78.77;45.53;;;;;;;2.86;78.52;101068.84;1762827;81;21196;-73
2021/01/04 10:11:01;;;;;;;60.63;34.10;;;;;;;2.90;78.44;101065.68;1876915;75;29268;-73
2021/01/04 10:13:32;;;;;;;60.00;36.50;;;;;;;2.83;78.39;101062.44;1802545;77;21149;-74
2021/01/04 10:16:01;;;;;;;67.45;39.67;;;;;;;2.80;78.31;101054.27;1847326;77;22051;-74
2021/01/04 10:18:54;;;;;;;58.48;31.15;;;;;;;2.78;78.29;101059.98;1841876;77;21211;-74
2021/01/04 10:21:30;;;;;;;63.70;34.48;;;;;;;2.80;78.28;101060.80;1838902;77;25687;-73
2021/01/04 10:24:07;;;;;;;52.95;29.52;;;;;;;2.81;78.26;101057.73;1765111;80;22315;-72
2021/01/04 10:26:44;;;;;;;46.25;27.13;;;;;;;2.86;78.34;101051.42;1763308;80;21167;-72
2021/01/04 10:29:25;;;;;;;44.00;27.05;;;;;;;2.91;78.29;101053.87;1839310;77;22056;-72
2021/01/04 10:35:03;;;;;;;42.90;25.88;;;;;;;2.96;78.03;101049.78;1829761;76;21155;-75
2021/01/04 10:37:57;;;;;;;47.17;28.67;;;;;;;2.95;77.88;101057.22;1798602;79;21141;-75
2021/01/04 10:40:30;;;;;;;41.90;26.42;;;;;;;2.95;77.93;101049.38;1832507;77;21164;-75
2021/01/04 10:43:05;;;;;;;48.68;31.42;;;;;;;2.97;77.89;101053.63;1817931;77;21902;-76
2021/01/04 10:45:41;;;;;;;55.45;34.27;;;;;;;2.96;77.83;101056.30;1784822;78;21360;-74
2021/01/04 10:48:20;;;;;;;46.42;28.57;;;;;;;2.96;77.90;101055.00;1771793;79;21110;-74
2021/01/04 10:50:53;;;;;;;51.95;32.80;;;;;;;2.96;77.86;101057.16;1837756;77;21142;-71
2021/01/04 10:53:32;;;;;;;49.67;31.02;;;;;;;2.95;77.83;101059.82;1817211;77;21165;-74
2021/01/04 10:56:20;;;;;;;55.03;34.73;;;;;;;2.92;77.70;101062.55;1824556;77;22070;-75
2021/01/04 10:58:56;;;;;;;43.48;27.70;;;;;;;2.91;77.75;101067.37;1775193;79;21158;-74
2021/01/04 11:01:31;;;;;;;51.88;33.02;;;;;;;2.93;77.82;101065.10;1750329;80;21173;-73
2021/01/04 11:04:02;;;;;;;53.63;33.40;;;;;;;2.93;77.73;101072.08;1700125;83;21593;-73
2021/01/04 11:06:32;;;;;;;48.42;31.27;;;;;;;2.92;77.78;101065.16;1784320;79;21149;-75
2021/01/04 11:09:23;;;;;;;54.38;32.03;;;;;;;2.94;77.81;101063.34;1782869;79;22973;-74
2021/01/04 11:12:06;;;;;;;49.27;31.23;;;;;;;2.96;77.83;101060.22;1754091;80;21192;-75
2021/01/04 11:14:34;;;;;;;62.73;38.00;;;;;;;2.99;77.85;101058.37;1749773;80;21470;-74
2021/01/04 11:17:32;;;;;;;53.25;33.60;;;;;;;2.98;77.74;101052.72;1769115;80;21189;-73
2021/01/04 11:20:12;;;;;;;51.53;31.57;;;;;;;2.95;77.76;101048.08;1757818;81;21192;-74
2021/01/04 11:22:41;;;;;;;52.78;33.50;;;;;;;2.90;77.67;101039.13;1766089;80;22953;-73
2021/01/04 11:25:11;;;;;;;49.73;31.68;;;;;;;2.83;77.64;101039.80;1757088;81;21168;-72
2021/01/04 11:27:38;;;;;;;49.18;30.75;;;;;;;2.79;77.68;101048.62;1759434;80;21820;-73
2021/01/04 11:30:07;;;;;;;57.70;33.10;;;;;;;2.79;77.73;101051.23;1766627;80;21208;-74
2021/01/04 11:32:35;;;;;;;50.80;32.55;;;;;;;2.78;77.73;101057.37;1756212;81;21173;-72
2021/01/04 11:35:04;;;;;;;53.50;33.20;;;;;;;2.78;77.76;101057.37;1757041;81;21910;-73
2021/01/04 11:37:32;;;;;;;54.25;32.83;;;;;;;2.79;77.79;101056.91;1741716;82;21236;-71
2021/01/04 11:40:01;;;;;;;52.75;33.50;;;;;;;2.81;77.82;101058.58;1749960;81;21173;-72
2021/01/04 11:42:28;;;;;;;51.92;32.55;;;;;;;2.83;77.86;101059.83;1753401;81;21180;-74
2021/01/04 11:44:58;;;;;;;48.13;31.60;;;;;;;2.83;77.83;101060.67;1723081;82;21173;-72
2021/01/04 11:47:26;;;;;;;49.83;30.95;;;;;;;2.84;77.87;101061.52;1767026;80;21904;-72
2021/01/04 11:49:54;;;;;;;43.00;27.13;;;;;;;2.79;77.75;101059.52;1745745;81;21169;-72
2021/01/04 11:52:23;;;;;;;42.58;27.67;;;;;;;2.72;77.74;101060.22;1696802;83;21165;-72
2021/01/04 11:54:51;;;;;;;47.67;29.72;;;;;;;2.65;77.74;101060.03;1733615;82;21174;-72
2021/01/04 11:57:19;;;;;;;47.43;30.10;;;;;;;2.57;77.82;101058.99;1736548;81;21197;-74
2021/01/04 11:59:47;;;;;;;45.12;30.10;;;;;;;2.53;77.88;101059.17;1777035;80;22023;-71
2021/01/04 12:02:14;;;;;;;45.45;28.60;;;;;;;2.50;78.01;101056.19;1791747;80;21187;-73
2021/01/04 12:04:44;;;;;;;46.08;30.50;;;;;;;2.51;78.10;101057.05;1761279;80;21089;-70
2021/01/04 12:07:12;;;;;;;45.50;29.90;;;;;;;2.51;78.14;101064.86;1760680;81;21062;-74
2021/01/04 12:09:40;;;;;;;47.95;29.52;;;;;;;2.53;78.22;101061.78;1771368;79;21101;-74
2021/01/04 12:12:10;;;;;;;41.73;27.13;;;;;;;2.55;78.30;101062.11;1780423;80;22561;-77
2021/01/04 12:14:38;;;;;;;47.23;28.75;;;;;;;2.56;78.33;101059.05;1759319;80;21083;-75
2021/01/04 12:17:08;;;;;;;41.45;27.20;;;;;;;2.56;78.38;101057.30;1766367;80;21109;-73
2021/01/04 12:19:35;;;;;;;38.88;25.02;;;;;;;2.56;78.37;101053.84;1787404;79;21537;-74
2021/01/04 12:22:10;;;;;;;42.15;26.87;;;;;;;2.54;78.37;101063.48;1790692;79;21137;-75
2021/01/04 12:24:39;;;;;;;43.40;26.75;;;;;;;2.53;78.41;101057.87;1774265;79;22053;-74
2021/01/04 12:27:09;;;;;;;38.20;25.00;;;;;;;2.53;78.48;101048.28;1790266;79;21482;-79